Dallas, Oregon
Current Conditions -  °F | °C
As of 1:56 AM on Thursday 27 Nov 2014 (Local Time) from KSLE Reporting Station
Overcast Overcast  
Wind Chill: 57°   Ceiling: 6000
Heat Index: 57°   Visibility: 10mi
Dew Point: 48°   Wind: 12mph
Humidity: 72%   Direction: 190°S
Pressure: 29.98"   Gusts: NA
Location:  44.92°N, 123.31°W
Report Text: KSLE 270956Z AUTO 19010KT 10SM BKN060 OVC070 14/09 A2998 RMK AO2 RAE23B45E54 SLP151 P0000 T01390089
Loading
Personal Weather Stations






























Interactive Weather Map New forecast layout! Learn more

10-Day Weather Forecast

Advertisements
Track Severe Weather on mobile